Time;durP1;ratioP1;P1;durP2;ratioP2;P2;SDS_P1;SDS_P2;PMS_P1;PMS_P2;Temp;Humidity;BMP_temperature;BMP_pressure;BME280_temperature;BME280_humidity;BME280_pressure;Samples;Min_cycle;Max_cycle;Signal;HPM_P1;HPM_P2
2022/04/29 00:02:16;;;;;;;;;;;;;;;12.31;83.91;100116.09;5073129;28;846;-53
2022/04/29 00:04:43;;;;;;;;;;;;;;;12.31;83.87;100114.16;5055395;28;810;-53
2022/04/29 00:07:11;;;;;;;;;;;;;;;12.29;84.30;100113.75;5073220;28;882;-53
2022/04/29 00:09:38;;;;;;;;;;;;;;;12.29;84.18;100115.72;5073030;28;1894;-55
2022/04/29 00:12:04;;;;;;;;;;;;;;;12.30;84.24;100120.88;5072776;28;910;-54
2022/04/29 00:14:31;;;;;;;;;;;;;;;12.29;84.12;100104.63;5073197;28;778;-55
2022/04/29 00:16:58;;;;;;;;;;;;;;;12.27;84.68;100110.59;5072965;28;865;-54
2022/04/29 00:19:26;;;;;;;;;;;;;;;12.20;84.67;100099.56;5072960;28;806;-51
2022/04/29 00:21:53;;;;;;;;;;;;;;;12.14;84.83;100113.06;5072701;28;910;-55
2022/04/29 00:24:20;;;;;;;;;;;;;;;12.16;84.97;100105.13;5072944;28;834;-54
2022/04/29 00:26:48;;;;;;;;;;;;;;;12.21;84.81;100112.22;5072577;28;1202;-52
2022/04/29 00:29:16;;;;;;;;;;;;;;;12.20;85.31;100108.66;5072548;28;1906;-54
2022/04/29 00:31:42;;;;;;;;;;;;;;;12.20;85.04;100110.63;5072606;28;865;-55
2022/04/29 00:34:09;;;;;;;;;;;;;;;12.21;85.27;100112.22;5072562;28;814;-54
2022/04/29 00:36:36;;;;;;;;;;;;;;;12.28;85.08;100116.94;5072486;28;865;-52
2022/04/29 00:39:03;;;;;;;;;;;;;;;12.31;84.84;100111.38;5072446;28;865;-54
2022/04/29 00:41:30;;;;;;;;;;;;;;;12.36;85.04;100102.63;5072320;28;798;-51
2022/04/29 00:44:01;;;;;;;;;;;;;;;12.40;84.67;100108.91;5072083;28;827;-54
2022/04/29 00:46:32;;;;;;;;;;;;;;;12.42;84.17;100117.63;5071674;28;925;-54
2022/04/29 00:48:59;;;;;;;;;;;;;;;12.44;84.14;100112.47;5072209;28;1878;-54
2022/04/29 00:51:25;;;;;;;;;;;;;;;12.43;84.52;100118.41;5072193;28;830;-53
2022/04/29 00:53:52;;;;;;;;;;;;;;;12.42;84.36;100114.84;5072198;28;806;-51
2022/04/29 00:56:21;;;;;;;;;;;;;;;12.44;84.53;100111.69;5054270;28;1466;-55
2022/04/29 00:58:52;;;;;;;;;;;;;;;12.46;84.64;100123.94;5072148;28;830;-56
2022/04/29 01:01:20;;;;;;;;;;;;;;;12.46;84.15;100118.38;5072354;28;802;-54
2022/04/29 01:03:48;;;;;;;;;;;;;;;12.51;84.20;100111.59;5072320;28;830;-55
2022/04/29 01:06:15;;;;;;;;;;;;;;;12.54;83.79;100110.78;5072415;28;802;-55
2022/04/29 01:08:42;;;;;;;;;;;;;;;12.58;83.76;100108.78;5071998;28;1987;-54
2022/04/29 01:11:09;;;;;;;;;;;;;;;12.61;83.28;100101.63;5071938;28;799;-55
2022/04/29 01:13:36;;;;;;;;;;;;;;;12.60;83.61;100100.06;5072185;28;854;-55
2022/04/29 01:16:06;;;;;;;;;;;;;;;12.59;83.71;100099.28;5071931;28;802;-54
2022/04/29 01:18:33;;;;;;;;;;;;;;;12.56;83.65;100102.06;5071685;28;1060;-54
2022/04/29 01:21:04;;;;;;;;;;;;;;;12.48;83.86;100093.00;5071758;28;933;-55
2022/04/29 01:23:32;;;;;;;;;;;;;;;12.39;84.25;100092.69;5071718;28;845;-53
2022/04/29 01:25:59;;;;;;;;;;;;;;;12.31;84.64;100091.16;5071627;28;1264;-54
2022/04/29 01:28:28;;;;;;;;;;;;;;;12.25;84.83;100090.81;5071813;28;1918;-54
2022/04/29 01:30:57;;;;;;;;;;;;;;;12.25;84.62;100088.84;5053745;28;946;-54
2022/04/29 01:33:25;;;;;;;;;;;;;;;12.25;84.72;100090.81;5071617;28;790;-55
2022/04/29 01:35:52;;;;;;;;;;;;;;;12.24;84.67;100081.69;5071518;28;917;-55
2022/04/29 01:38:19;;;;;;;;;;;;;;;12.32;84.39;100082.44;5071529;28;1222;-54
2022/04/29 01:40:46;;;;;;;;;;;;;;;12.29;84.57;100080.50;5071539;28;924;-56
2022/04/29 01:43:13;;;;;;;;;;;;;;;12.29;84.39;100086.06;5071498;28;881;-54
2022/04/29 01:45:39;;;;;;;;;;;;;;;12.24;84.60;100086.47;5071420;28;906;-56
2022/04/29 01:48:06;;;;;;;;;;;;;;;12.17;84.53;100067.13;5071421;28;1893;-54
2022/04/29 01:50:33;;;;;;;;;;;;;;;12.11;84.91;100066.75;5071412;28;810;-54
2022/04/29 01:53:00;;;;;;;;;;;;;;;12.03;84.70;100077.13;5071435;28;899;-55
2022/04/29 01:55:27;;;;;;;;;;;;;;;11.96;84.99;100077.16;5071393;28;905;-55
2022/04/29 01:57:56;;;;;;;;;;;;;;;11.92;85.06;100079.16;5075255;28;894;-56
2022/04/29 02:00:23;;;;;;;;;;;;;;;11.89;85.31;100079.97;5075438;28;910;-55
2022/04/29 02:02:50;;;;;;;;;;;;;;;11.85;84.95;100079.94;5075417;28;823;-55
2022/04/29 02:05:18;;;;;;;;;;;;;;;11.83;85.27;100079.56;5075464;28;795;-54
2022/04/29 02:07:45;;;;;;;;;;;;;;;11.78;85.58;100073.69;5075213;28;1964;-54
2022/04/29 02:10:11;;;;;;;;;;;;;;;11.74;85.36;100081.22;5075171;28;853;-54
2022/04/29 02:12:38;;;;;;;;;;;;;;;11.63;86.26;100078.50;5057439;28;779;-55
2022/04/29 02:15:06;;;;;;;;;;;;;;;11.56;86.54;100079.31;5075313;28;845;-54
2022/04/29 02:17:33;;;;;;;;;;;;;;;11.54;86.67;100075.38;5075266;28;945;-54
2022/04/29 02:19:59;;;;;;;;;;;;;;;11.55;86.12;100072.19;5075160;28;791;-54
2022/04/29 02:22:26;;;;;;;;;;;;;;;11.53;85.81;100073.81;5075023;28;867;-52
2022/04/29 02:24:53;;;;;;;;;;;;;;;11.48;86.26;100083.31;5075035;28;1122;-54
2022/04/29 02:27:19;;;;;;;;;;;;;;;11.43;86.28;100065.13;5074703;28;1421;-54
2022/04/29 02:29:46;;;;;;;;;;;;;;;11.41;85.87;100075.03;5074852;28;1977;-55
2022/04/29 02:32:12;;;;;;;;;;;;;;;11.44;85.85;100080.56;5074950;28;810;-56
2022/04/29 02:38:03;;;;;;;;;;;;;;;11.50;84.86;100078.16;5074801;28;695;-55
2022/04/29 02:40:29;;;;;;;;;;;;;;;11.44;85.17;100082.53;5074564;28;850;-54
2022/04/29 02:42:56;;;;;;;;;;;;;;;11.40;85.27;100073.47;5074730;28;862;-54
2022/04/29 02:45:23;;;;;;;;;;;;;;;11.39;85.29;100086.50;5074581;28;849;-54
2022/04/29 02:47:50;;;;;;;;;;;;;;;11.41;84.87;100094.41;5074500;28;1893;-54
2022/04/29 02:50:17;;;;;;;;;;;;;;;11.41;84.98;100097.16;5074516;28;869;-52
2022/04/29 02:52:43;;;;;;;;;;;;;;;11.39;84.42;100094.00;5074523;28;834;-54
2022/04/29 02:55:11;;;;;;;;;;;;;;;11.40;84.32;100090.06;5074482;28;897;-54
2022/04/29 02:57:37;;;;;;;;;;;;;;;11.40;84.50;100095.59;5074373;28;909;-57
2022/04/29 03:00:06;;;;;;;;;;;;;;;11.55;83.69;100088.81;5074331;28;835;-54
2022/04/29 03:02:32;;;;;;;;;;;;;;;11.58;83.48;100093.53;5074513;28;929;-56
2022/04/29 03:04:59;;;;;;;;;;;;;;;11.63;82.97;100089.56;5074466;28;834;-55
2022/04/29 03:07:27;;;;;;;;;;;;;;;11.71;82.77;100084.78;5073331;28;810;-54
2022/04/29 03:09:53;;;;;;;;;;;;;;;11.69;82.14;100101.00;5073873;28;1890;-55
2022/04/29 03:12:23;;;;;;;;;;;;;;;11.75;82.08;100097.41;5074211;28;838;-54
2022/04/29 03:14:49;;;;;;;;;;;;;;;11.79;82.07;100097.41;5074051;28;949;-54
2022/04/29 03:20:01;;;;;;;;;;;;;;;11.72;82.20;100091.91;5059207;28;624;-55
2022/04/29 03:22:29;;;;;;;;;;;;;;;11.70;82.39;100105.38;5073957;28;896;-53
2022/04/29 03:24:56;;;;;;;;;;;;;;;11.70;82.27;100102.59;5073927;28;1143;-51
2022/04/29 03:27:23;;;;;;;;;;;;;;;11.72;81.57;100103.75;5073573;28;1508;-54
2022/04/29 03:29:48;;;;;;;;;;;;;;;11.75;82.05;100104.94;5073781;28;1969;-54
2022/04/29 03:32:15;;;;;;;;;;;;;;;11.72;82.01;100108.53;5073800;28;946;-54
2022/04/29 03:34:42;;;;;;;;;;;;;;;11.71;82.22;100109.69;5073828;28;869;-53
2022/04/29 03:37:09;;;;;;;;;;;;;;;11.78;81.58;100116.00;5073678;28;865;-54
2022/04/29 03:39:35;;;;;;;;;;;;;;;11.83;81.18;100115.56;5055684;28;1507;-54
2022/04/29 03:42:02;;;;;;;;;;;;;;;11.85;81.48;100115.16;5055568;28;1460;-55
2022/04/29 03:44:29;;;;;;;;;;;;;;;11.92;81.27;100120.69;5073681;28;858;-55
2022/04/29 03:46:56;;;;;;;;;;;;;;;12.03;80.29;100106.78;5073458;28;862;-54
2022/04/29 03:49:35;;;;;;;;;;;;;;;12.15;80.69;100117.41;5073338;28;1889;-55
2022/04/29 03:52:02;;;;;;;;;;;;;;;12.25;79.54;100116.53;5073429;28;830;-57
2022/04/29 03:54:30;;;;;;;;;;;;;;;12.40;79.55;100106.16;5073685;28;830;-55
2022/04/29 03:56:57;;;;;;;;;;;;;;;12.49;79.14;100122.31;5073215;28;860;-54
2022/04/29 03:59:25;;;;;;;;;;;;;;;12.55;78.42;100120.69;5073254;28;826;-55
2022/04/29 04:01:52;;;;;;;;;;;;;;;12.62;78.01;100126.16;5055372;28;2618;-55
2022/04/29 04:04:19;;;;;;;;;;;;;;;12.68;78.27;100123.75;5073165;28;814;-55
2022/04/29 04:06:52;;;;;;;;;;;;;;;12.73;78.01;100126.06;5055149;28;1353;-54
2022/04/29 04:09:22;;;;;;;;;;;;;;;12.78;77.82;100133.97;5055036;28;1886;-54
2022/04/29 04:11:51;;;;;;;;;;;;;;;12.78;77.60;100128.44;5072965;28;834;-55
2022/04/29 04:14:22;;;;;;;;;;;;;;;12.76;77.76;100136.38;5073077;28;881;-54
2022/04/29 04:16:48;;;;;;;;;;;;;;;12.71;78.00;100136.78;5072921;28;833;-54
2022/04/29 04:19:16;;;;;;;;;;;;;;;12.68;78.19;100143.16;5072726;28;787;-55
2022/04/29 04:21:41;;;;;;;;;;;;;;;12.65;78.34;100132.88;5072703;28;921;-54
2022/04/29 04:24:08;;;;;;;;;;;;;;;12.61;78.75;100137.66;5072798;28;861;-56
2022/04/29 04:26:35;;;;;;;;;;;;;;;12.59;78.69;100151.94;5072543;28;1216;-56
2022/04/29 04:29:02;;;;;;;;;;;;;;;12.62;78.48;100150.34;5072768;28;1914;-55
2022/04/29 04:31:29;;;;;;;;;;;;;;;12.61;78.72;100155.09;5072812;28;842;-56
2022/04/29 04:33:56;;;;;;;;;;;;;;;12.62;78.58;100155.88;5072481;28;918;-56
2022/04/29 04:36:23;;;;;;;;;;;;;;;12.75;77.98;100167.28;5072418;28;970;-56
2022/04/29 04:38:51;;;;;;;;;;;;;;;12.95;77.39;100160.00;5054634;28;783;-55
2022/04/29 04:41:18;;;;;;;;;;;;;;;13.16;76.63;100163.75;5072404;28;869;-55
2022/04/29 04:43:44;;;;;;;;;;;;;;;13.36;75.66;100164.78;5072369;28;795;-56
2022/04/29 04:46:12;;;;;;;;;;;;;;;13.42;74.77;100154.78;5072533;28;968;-56
2022/04/29 04:48:39;;;;;;;;;;;;;;;13.48;74.43;100163.44;5072125;28;1910;-56
2022/04/29 04:51:06;;;;;;;;;;;;;;;13.70;74.02;100161.22;5072253;28;774;-57
2022/04/29 04:53:33;;;;;;;;;;;;;;;14.05;73.06;100145.28;5072266;28;842;-54
2022/04/29 04:56:00;;;;;;;;;;;;;;;14.33;71.49;100152.44;5072228;28;913;-55
2022/04/29 04:58:27;;;;;;;;;;;;;;;14.48;70.53;100156.56;5072109;28;873;-55
2022/04/29 05:00:54;;;;;;;;;;;;;;;14.56;70.48;100154.50;5071964;28;874;-54
2022/04/29 05:03:21;;;;;;;;;;;;;;;14.59;69.98;100150.88;5072026;28;790;-54
2022/04/29 05:05:47;;;;;;;;;;;;;;;14.76;69.72;100157.34;5072086;28;826;-54
2022/04/29 05:08:14;;;;;;;;;;;;;;;15.07;67.40;100160.81;5071761;28;1910;-57
2022/04/29 05:10:41;;;;;;;;;;;;;;;15.52;65.88;100162.38;5071926;28;832;-56
2022/04/29 05:13:08;;;;;;;;;;;;;;;16.07;63.07;100157.31;5071956;28;864;-56
2022/04/29 05:15:36;;;;;;;;;;;;;;;16.56;62.54;100160.19;5071868;28;893;-54
2022/04/29 05:18:04;;;;;;;;;;;;;;;16.70;60.39;100167.41;5071838;28;794;-54
2022/04/29 05:20:30;;;;;;;;;;;;;;;16.35;60.79;100174.63;5071717;28;806;-55
2022/04/29 05:22:57;;;;;;;;;;;;;;;15.81;63.15;100165.41;5071829;28;813;-54
2022/04/29 05:25:24;;;;;;;;;;;;;;;15.44;63.98;100167.28;5071639;28;898;-54
2022/04/29 05:27:51;;;;;;;;;;;;;;;15.29;64.92;100169.56;5071456;28;1894;-55
2022/04/29 05:30:18;;;;;;;;;;;;;;;15.07;64.74;100173.94;5071435;28;826;-54
2022/04/29 05:32:46;;;;;;;;;;;;;;;14.89;65.65;100180.59;5071514;28;885;-55
2022/04/29 05:35:13;;;;;;;;;;;;;;;14.73;66.20;100166.56;5071736;28;885;-55
2022/04/29 05:37:40;;;;;;;;;;;;;;;14.59;66.25;100180.69;5071421;28;921;-55
2022/04/29 05:42:53;;;;;;;;;;;;;;;14.37;66.13;100180.19;5071552;28;696;-56
2022/04/29 05:45:20;;;;;;;;;;;;;;;14.41;67.06;100192.84;5071512;28;841;-56
2022/04/29 05:47:47;;;;;;;;;;;;;;;14.48;67.25;100189.94;5071517;28;882;-55
2022/04/29 05:50:14;;;;;;;;;;;;;;;14.63;67.05;100193.31;5071351;28;1953;-56
2022/04/29 05:52:41;;;;;;;;;;;;;;;14.90;65.25;100189.75;5071406;28;795;-54
2022/04/29 05:55:07;;;;;;;;;;;;;;;16.08;61.95;100184.75;5071470;28;818;-54
2022/04/29 05:57:34;;;;;;;;;;;;;;;17.46;57.26;100192.22;5071385;28;809;-55
2022/04/29 06:00:01;;;;;;;;;;;;;;;18.46;55.61;100193.41;5071405;28;807;-54
2022/04/29 06:02:28;;;;;;;;;;;;;;;19.11;51.73;100192.88;5071264;28;929;-55
2022/04/29 06:04:56;;;;;;;;;;;;;;;19.62;49.62;100182.75;5071197;28;809;-54
2022/04/29 06:07:23;;;;;;;;;;;;;;;19.81;49.31;100180.88;5071338;28;807;-55
2022/04/29 06:09:49;;;;;;;;;;;;;;;19.85;47.71;100182.31;5071195;28;1949;-55
2022/04/29 06:12:16;;;;;;;;;;;;;;;20.01;48.63;100180.53;5071323;28;830;-56
2022/04/29 06:14:45;;;;;;;;;;;;;;;20.36;47.56;100179.16;5071233;28;807;-55
2022/04/29 06:17:12;;;;;;;;;;;;;;;20.65;46.88;100177.25;5071121;28;938;-56
2022/04/29 06:19:39;;;;;;;;;;;;;;;20.62;46.82;100186.63;5071169;28;842;-56
2022/04/29 06:22:06;;;;;;;;;;;;;;;20.61;46.47;100177.41;5071413;28;875;-56
2022/04/29 06:24:33;;;;;;;;;;;;;;;20.52;46.65;100180.94;5071275;28;937;-56
2022/04/29 06:27:01;;;;;;;;;;;;;;;20.54;46.18;100189.69;5071028;28;1335;-56
2022/04/29 06:29:27;;;;;;;;;;;;;;;19.12;49.51;100188.88;5071147;28;1918;-56
2022/04/29 06:31:54;;;;;;;;;;;;;;;18.69;52.00;100200.66;5071244;28;883;-54
2022/04/29 06:34:21;;;;;;;;;;;;;;;19.49;50.68;100202.41;5070963;28;861;-56
2022/04/29 06:36:48;;;;;;;;;;;;;;;20.15;48.89;100192.00;5071061;28;832;-56
2022/04/29 06:39:14;;;;;;;;;;;;;;;20.57;48.49;100188.00;5053178;28;870;-56
2022/04/29 06:41:42;;;;;;;;;;;;;;;21.20;46.26;100195.03;5071016;28;869;-57
2022/04/29 06:44:08;;;;;;;;;;;;;;;21.68;45.08;100199.44;5074528;28;906;-57
2022/04/29 06:46:34;;;;;;;;;;;;;;;21.65;44.75;100195.53;5074574;28;858;-55
2022/04/29 06:49:01;;;;;;;;;;;;;;;21.40;43.92;100205.84;5074814;28;1893;-57
2022/04/29 06:51:28;;;;;;;;;;;;;;;20.87;45.87;100203.25;5074598;28;854;-56
2022/04/29 06:53:56;;;;;;;;;;;;;;;20.87;45.89;100194.03;5074481;28;862;-54
2022/04/29 06:56:22;;;;;;;;;;;;;;;21.10;45.73;100204.72;5074476;28;806;-57
2022/04/29 06:58:49;;;;;;;;;;;;;;;20.74;45.33;100202.56;5074482;28;853;-57
2022/04/29 07:01:16;;;;;;;;;;;;;;;20.65;45.83;100196.94;5074305;28;869;-56
2022/04/29 07:03:43;;;;;;;;;;;;;;;20.76;43.86;100211.31;5074352;28;818;-57
2022/04/29 07:06:10;;;;;;;;;;;;;;;20.66;44.68;100210.50;5074111;28;910;-56
2022/04/29 07:08:38;;;;;;;;;;;;;;;21.18;45.19;100211.56;5074183;28;1975;-57
2022/04/29 07:11:04;;;;;;;;;;;;;;;21.26;42.49;100209.25;5074196;28;849;-56
2022/04/29 07:13:32;;;;;;;;;;;;;;;21.15;43.35;100206.13;5074222;28;837;-56
2022/04/29 07:15:59;;;;;;;;;;;;;;;21.14;43.59;100210.94;5074042;28;866;-55
2022/04/29 07:18:26;;;;;;;;;;;;;;;21.53;44.10;100208.53;5074111;28;814;-56
2022/04/29 07:20:52;;;;;;;;;;;;;;;21.75;41.87;100211.16;5074192;28;814;-54
2022/04/29 07:23:19;;;;;;;;;;;;;;;21.63;42.56;100212.09;5056010;28;1263;-56
2022/04/29 07:25:46;;;;;;;;;;;;;;;21.73;43.43;100208.03;5073883;28;1268;-55
2022/04/29 07:28:12;;;;;;;;;;;;;;;21.99;41.34;100213.31;5073808;28;1977;-55
2022/04/29 07:30:38;;;;;;;;;;;;;;;21.54;40.91;100223.34;5073701;28;984;-55
2022/04/29 07:33:05;;;;;;;;;;;;;;;21.25;41.75;100213.31;5073908;28;877;-55
2022/04/29 07:43:47;;;;;;;;;;;;;;;21.48;41.11;100225.22;5073651;28;598;-56
2022/04/29 07:46:16;;;;;;;;;;;;;;;21.40;41.83;100219.88;5055722;28;1165;-56
2022/04/29 07:48:42;;;;;;;;;;;;;;;21.45;41.03;100212.13;5073478;28;1894;-56
2022/04/29 07:51:09;;;;;;;;;;;;;;;21.36;41.75;100224.88;5073615;28;818;-57
2022/04/29 07:53:35;;;;;;;;;;;;;;;21.15;41.56;100228.59;5072867;28;882;-57
2022/04/29 07:56:03;;;;;;;;;;;;;;;20.75;42.61;100215.38;5073594;28;807;-56
2022/04/29 07:58:30;;;;;;;;;;;;;;;20.80;42.94;100226.00;5073290;28;873;-56
2022/04/29 08:00:57;;;;;;;;;;;;;;;21.05;41.59;100236.22;5073230;28;811;-57
2022/04/29 08:03:24;;;;;;;;;;;;;;;21.16;41.58;100232.97;5073087;28;819;-56
2022/04/29 08:05:52;;;;;;;;;;;;;;;20.99;42.66;100229.66;5073058;28;850;-56
2022/04/29 08:08:19;;;;;;;;;;;;;;;21.11;41.08;100237.19;5073732;28;1889;-56
2022/04/29 08:10:46;;;;;;;;;;;;;;;21.05;40.93;100241.06;5073604;28;811;-55
2022/04/29 08:13:12;;;;;;;;;;;;;;;21.11;41.01;100236.41;5073550;28;806;-56
2022/04/29 08:15:43;;;;;;;;;;;;;;;21.02;42.27;100228.72;5072938;28;850;-55
2022/04/29 08:18:12;;;;;;;;;;;;;;;21.33;42.02;100223.00;5072814;28;958;-55
2022/04/29 08:20:39;;;;;;;;;;;;;;;21.13;39.82;100225.47;5072909;28;833;-56
2022/04/29 08:26:07;;;;;;;;;;;;;;;20.91;41.21;100211.50;5067622;28;1338;-54
2022/04/29 08:28:34;;;;;;;;;;;;;;;20.81;42.56;100221.97;5072641;28;2001;-56
2022/04/29 08:31:01;;;;;;;;;;;;;;;21.03;42.75;100219.03;5072548;28;897;-54
2022/04/29 08:33:28;;;;;;;;;;;;;;;21.22;40.65;100222.66;5072731;28;929;-57
2022/04/29 08:35:55;;;;;;;;;;;;;;;21.07;42.76;100210.47;5072463;28;898;-56
2022/04/29 08:38:22;;;;;;;;;;;;;;;21.26;41.86;100216.91;5072516;28;873;-57
2022/04/29 08:40:47;;;;;;;;;;;;;;;21.19;41.84;100218.00;5054945;28;874;-55
2022/04/29 08:43:15;;;;;;;;;;;;;;;21.25;42.78;100218.13;5072369;28;857;-55
2022/04/29 08:45:43;;;;;;;;;;;;;;;21.27;43.43;100199.56;5072312;28;866;-57
2022/04/29 08:48:10;;;;;;;;;;;;;;;21.24;42.39;100206.13;5072212;28;1945;-57
2022/04/29 08:50:37;;;;;;;;;;;;;;;21.46;43.69;100193.97;5072292;28;858;-55
2022/04/29 08:53:04;;;;;;;;;;;;;;;21.43;41.88;100189.31;5072072;28;1166;-55
2022/04/29 08:58:39;;;;;;;;;;;;;;;21.54;43.21;100198.06;5038087;28;1502;-56
2022/04/29 09:01:08;;;;;;;;;;;;;;;21.23;44.62;100195.34;5072022;28;936;-57
2022/04/29 09:03:36;;;;;;;;;;;;;;;21.25;44.28;100190.84;5054029;28;893;-57
2022/04/29 09:06:04;;;;;;;;;;;;;;;20.91;44.30;100192.66;5071061;28;989;-57
2022/04/29 09:08:37;;;;;;;;;;;;;;;20.80;45.01;100186.66;5072623;28;1902;-56
2022/04/29 09:11:05;;;;;;;;;;;;;;;20.77;45.81;100185.56;5071887;28;882;-57
2022/04/29 09:13:35;;;;;;;;;;;;;;;20.88;45.80;100187.94;5072262;28;924;-57
2022/04/29 09:16:06;;;;;;;;;;;;;;;21.21;44.34;100195.81;5037604;28;975;-57
2022/04/29 09:18:37;;;;;;;;;;;;;;;20.97;44.30;100192.81;5071773;28;925;-58
2022/04/29 09:21:07;;;;;;;;;;;;;;;20.84;44.98;100189.34;5071723;28;1111;-56
2022/04/29 09:23:38;;;;;;;;;;;;;;;20.97;44.45;100187.19;5071990;28;962;-56
2022/04/29 09:26:05;;;;;;;;;;;;;;;21.06;45.19;100184.41;5071908;28;1124;-56
2022/04/29 09:28:33;;;;;;;;;;;;;;;21.46;45.69;100177.09;5051568;28;1910;-57
2022/04/29 09:31:03;;;;;;;;;;;;;;;21.74;43.25;100187.09;5051658;28;959;-55
2022/04/29 09:33:35;;;;;;;;;;;;;;;21.61;43.67;100181.66;5051592;28;810;-56
2022/04/29 09:36:02;;;;;;;;;;;;;;;21.76;42.61;100181.78;5051594;28;795;-57
2022/04/29 09:41:21;;;;;;;;;;;;;;;20.89;44.69;100171.84;5051871;28;613;-56
2022/04/29 09:43:48;;;;;;;;;;;;;;;20.36;47.00;100179.16;5051468;28;866;-54
2022/04/29 09:46:15;;;;;;;;;;;;;;;20.25;46.30;100178.00;5051469;28;810;-57
2022/04/29 09:48:51;;;;;;;;;;;;;;;20.22;45.86;100184.56;5051323;28;1886;-56
2022/04/29 09:51:37;;;;;;;;;;;;;;;20.59;46.52;100174.31;5050111;28;862;-57
2022/04/29 09:54:17;;;;;;;;;;;;;;;20.80;44.43;100175.44;5051393;28;921;-56
2022/04/29 09:56:44;;;;;;;;;;;;;;;20.62;44.63;100181.78;5051307;28;941;-56
2022/04/29 10:25:04;;;;;;;;;;;;;;;24.36;41.33;100167.59;5811219;22;1589;-58
2022/04/29 10:27:31;;;;;;;;;;;;;;;24.59;40.13;100175.16;5055327;28;893;-57
2022/04/29 10:29:57;;;;;;;;;;;;;;;24.78;38.08;100172.88;5037641;28;1948;-58
2022/04/29 10:32:24;;;;;;;;;;;;;;;24.90;38.90;100170.19;5054912;28;932;-58
2022/04/29 10:34:54;;;;;;;;;;;;;;;24.75;38.50;100164.59;5055013;28;810;-58
2022/04/29 10:37:30;;;;;;;;;;;;;;;23.93;39.08;100169.97;5054805;28;932;-58
2022/04/29 10:40:10;;;;;;;;;;;;;;;22.84;41.71;100174.69;5054777;28;887;-57
2022/04/29 10:43:14;;;;;;;;;;;;;;;23.06;42.42;100167.22;5054955;28;925;-58
2022/04/29 10:45:59;;;;;;;;;;;;;;;22.10;42.50;100165.75;4954522;29;1509;-57
2022/04/29 10:48:33;;;;;;;;;;;;;;;22.08;43.70;100167.47;4954492;29;1886;-57
2022/04/29 10:51:17;;;;;;;;;;;;;;;21.84;42.45;100161.75;4954448;29;847;-57
2022/04/29 10:53:48;;;;;;;;;;;;;;;21.80;45.58;100170.34;4954361;29;975;-57
2022/04/29 10:56:30;;;;;;;;;;;;;;;21.90;46.02;100160.66;4954341;29;799;-57
2022/04/29 10:59:23;;;;;;;;;;;;;;;21.68;43.25;100157.25;4954278;29;929;-57
2022/04/29 11:02:04;;;;;;;;;;;;;;;21.78;44.12;100153.94;4952609;29;1821;-57
2022/04/29 11:04:34;;;;;;;;;;;;;;;21.68;44.70;100155.22;4954210;29;985;-57
2022/04/29 11:07:01;;;;;;;;;;;;;;;21.54;44.92;100148.19;4954150;29;1002;-57
2022/04/29 11:09:28;;;;;;;;;;;;;;;21.78;44.64;100144.72;4954058;29;1895;-57
2022/04/29 11:11:55;;;;;;;;;;;;;;;22.14;42.46;100143.84;4954043;29;937;-57
2022/04/29 11:14:23;;;;;;;;;;;;;;;22.98;41.70;100144.22;4954102;29;819;-57
2022/04/29 11:16:52;;;;;;;;;;;;;;;23.56;39.30;100150.53;4954137;29;921;-58
2022/04/29 11:19:28;;;;;;;;;;;;;;;23.70;39.88;100144.13;4992023;28;1129;-58
2022/04/29 11:24:50;;;;;;;;;;;;;;;23.10;42.29;100139.63;5054393;28;918;-58
2022/04/29 11:27:27;;;;;;;;;;;;;;;22.61;41.15;100138.81;5036222;28;885;-57
2022/04/29 11:29:54;;;;;;;;;;;;;;;21.79;43.35;100143.50;5053214;28;1918;-58
2022/04/29 11:32:27;;;;;;;;;;;;;;;21.75;43.16;100138.03;5053905;28;811;-58
2022/04/29 11:34:55;;;;;;;;;;;;;;;22.54;42.51;100142.78;5053838;28;842;-58
2022/04/29 11:37:26;;;;;;;;;;;;;;;23.69;42.27;100148.22;5053723;28;822;-58
2022/04/29 11:39:54;;;;;;;;;;;;;;;23.53;39.89;100143.03;5053696;28;905;-58
2022/04/29 11:42:22;;;;;;;;;;;;;;;22.52;41.99;100148.09;5053622;28;937;-58
2022/04/29 11:44:52;;;;;;;;;;;;;;;22.32;42.45;100145.06;5035766;28;1704;-58
2022/04/29 11:47:25;;;;;;;;;;;;;;;23.62;40.20;100134.50;5053496;28;875;-58
2022/04/29 11:49:53;;;;;;;;;;;;;;;24.05;39.45;100137.84;5053872;28;1881;-58
2022/04/29 11:52:20;;;;;;;;;;;;;;;23.82;39.36;100128.97;5053644;28;934;-58
2022/04/29 11:54:55;;;;;;;;;;;;;;;24.10;40.74;100130.72;5035507;28;1371;-58
2022/04/29 11:57:23;;;;;;;;;;;;;;;24.73;38.50;100138.84;5053461;28;834;-57
2022/04/29 11:59:50;;;;;;;;;;;;;;;23.87;38.31;100130.34;5053353;28;823;-57
2022/04/29 12:02:18;;;;;;;;;;;;;;;23.27;39.88;100137.16;5053289;28;838;-57
2022/04/29 12:05:01;;;;;;;;;;;;;;;23.32;40.07;100120.34;5053257;28;881;-58
2022/04/29 12:07:29;;;;;;;;;;;;;;;24.25;39.02;100095.53;5053237;28;861;-58
2022/04/29 12:09:56;;;;;;;;;;;;;;;24.03;38.38;100109.31;5052967;28;2031;-58
2022/04/29 12:12:23;;;;;;;;;;;;;;;23.00;41.15;100103.06;5053104;28;939;-57
2022/04/29 12:14:50;;;;;;;;;;;;;;;23.37;40.91;100105.56;5053096;28;881;-58
2022/04/29 12:17:17;;;;;;;;;;;;;;;24.18;40.34;100100.81;5052878;28;901;-58
2022/04/29 12:19:46;;;;;;;;;;;;;;;24.68;39.70;100100.00;5053049;28;830;-58
2022/04/29 12:22:26;;;;;;;;;;;;;;;24.54;38.44;100102.41;5052872;28;1178;-58
2022/04/29 12:24:53;;;;;;;;;;;;;;;23.06;40.82;100116.50;5035176;28;1403;-58
2022/04/29 12:27:27;;;;;;;;;;;;;;;22.58;41.61;100120.06;5053300;28;1012;-58
2022/04/29 12:35:31;;;;;;;;;;;;;;;20.47;45.82;100107.78;5052958;28;691;-57
2022/04/29 12:37:57;;;;;;;;;;;;;;;20.52;46.83;100098.72;5052637;28;830;-58
2022/04/29 12:40:30;;;;;;;;;;;;;;;20.58;46.16;100103.31;5034735;28;806;-58
2022/04/29 12:43:13;;;;;;;;;;;;;;;20.93;45.08;100096.63;5052509;28;885;-58
2022/04/29 12:45:40;;;;;;;;;;;;;;;21.78;44.49;100100.50;5052421;28;917;-58
2022/04/29 12:48:09;;;;;;;;;;;;;;;21.86;42.93;100092.50;5052773;28;806;-58
2022/04/29 12:50:37;;;;;;;;;;;;;;;21.39;43.94;100085.41;5052290;28;960;-58
2022/04/29 12:53:04;;;;;;;;;;;;;;;21.29;44.14;100090.25;5052195;28;902;-58
2022/04/29 12:55:35;;;;;;;;;;;;;;;21.13;44.51;100090.56;5052215;28;859;-58
2022/04/29 12:58:22;;;;;;;;;;;;;;;21.41;45.85;100092.13;5052145;28;965;-58
2022/04/29 13:00:55;;;;;;;;;;;;;;;21.70;44.76;100090.84;5051929;28;1425;-58
2022/04/29 13:03:23;;;;;;;;;;;;;;;21.40;45.52;100104.63;5052272;28;925;-58
2022/04/29 13:05:49;;;;;;;;;;;;;;;20.92;46.09;100089.47;5052287;28;798;-58
2022/04/29 13:08:16;;;;;;;;;;;;;;;20.69;46.32;100090.84;5052430;28;1882;-57
2022/04/29 13:10:50;;;;;;;;;;;;;;;20.58;47.13;100075.22;5052196;28;872;-58
2022/04/29 13:13:17;;;;;;;;;;;;;;;20.92;46.76;100075.44;5052003;28;825;-58
2022/04/29 13:15:44;;;;;;;;;;;;;;;21.49;47.39;100081.34;5052252;28;822;-58
2022/04/29 13:18:12;;;;;;;;;;;;;;;22.10;43.69;100083.34;5051919;28;842;-58
2022/04/29 13:20:39;;;;;;;;;;;;;;;22.40;45.28;100082.31;5051756;28;850;-58
2022/04/29 13:23:05;;;;;;;;;;;;;;;22.38;43.70;100075.56;5051769;28;810;-58
2022/04/29 13:25:35;;;;;;;;;;;;;;;21.99;44.80;100070.56;5051000;28;1349;-58
2022/04/29 13:28:03;;;;;;;;;;;;;;;21.33;45.59;100073.22;5051758;28;994;-58
2022/04/29 13:30:30;;;;;;;;;;;;;;;20.65;46.27;100073.38;5051909;28;1973;-58
2022/04/29 13:32:57;;;;;;;;;;;;;;;20.24;46.96;100078.22;5051614;28;938;-58
2022/04/29 13:35:24;;;;;;;;;;;;;;;19.95;49.00;100074.53;5051785;28;806;-58
2022/04/29 13:37:51;;;;;;;;;;;;;;;19.90;49.12;100069.50;5051735;28;854;-58
2022/04/29 13:40:17;;;;;;;;;;;;;;;19.91;48.29;100073.13;5051619;28;873;-58
2022/04/29 13:42:44;;;;;;;;;;;;;;;19.65;49.36;100059.25;5051623;28;877;-58
2022/04/29 13:45:11;;;;;;;;;;;;;;;19.57;49.27;100058.72;5051413;28;858;-58
2022/04/29 13:47:38;;;;;;;;;;;;;;;19.61;49.94;100061.41;5051527;28;822;-58
2022/04/29 13:50:05;;;;;;;;;;;;;;;19.41;49.21;100060.97;5051375;28;1909;-58
2022/04/29 13:55:17;;;;;;;;;;;;;;;19.12;50.46;100060.00;5051769;28;621;-58
2022/04/29 13:57:43;;;;;;;;;;;;;;;18.97;51.04;100054.13;5051678;28;846;-57
2022/04/29 14:00:11;;;;;;;;;;;;;;;18.84;50.88;100052.59;5051250;28;846;-57
2022/04/29 14:02:40;;;;;;;;;;;;;;;18.70;51.43;100048.25;5051263;28;838;-57
2022/04/29 14:05:08;;;;;;;;;;;;;;;18.63;52.38;100052.06;5051343;28;920;-57